PWSweather.com
Personal Weather Stations
Station Observations
BLACKWELL
Blackwell, AlfretonGB DE55

BlackwellAlfretonGB DE55

Lat: 53.12076, Lon: -1.354978

Elevation: 410

Station Type: Vantage Pro

High Low Average
Temperature 46.9°F8.3°C 41.4°F5.2°C 44.6°F7.0°C
Dew Point 45.0°F7.2°C 40.1°F4.5°C 43.2°F6.2°C
Winds 1.0 mph 1.6 kmh Calm Calm Calm WSWCalm WSW
Wind Gusts 11.0 mph17.7 kmh -- 4.0 mph6.4 kmh
Humidity 97% 92% 95%
Pressure 29.70 in1005.8 mb 29.29 in991.9 mb -
Precipitation 0.09 in2.3 mm - -
Hour Temp Dew Point Humidity Winds Wind Gusts Pressure Precip Precip Rate Daily Precip Total
12:32 AM 44.4°F6.9°C 43.5°F6.4°C 96% Calm Calm 6.0 mph9.7 kmh 29.29 in991.9 mb 0.00 in0.0 mm 0.00 in0.0 mm 0.00 in0.0 mm
01:32 AM 44.1°F6.7°C 43.0°F6.1°C 96% Calm Calm 3.0 mph4.8 kmh 29.30 in992.2 mb 0.00 in0.0 mm 0.00 in0.0 mm 0.00 in0.0 mm
02:32 AM 44.2°F6.8°C 43.2°F6.2°C 96% Calm Calm 3.0 mph4.8 kmh 29.32 in992.9 mb 0.00 in0.0 mm 0.00 in0.0 mm 0.00 in0.0 mm
03:32 AM 44.2°F6.8°C 43.5°F6.4°C 97% 1.0 mph N1.6 kmh N 5.0 mph8.0 kmh 29.32 in992.9 mb 0.00 in0.0 mm 0.00 in0.0 mm 0.00 in0.0 mm
04:32 AM 44.2°F6.8°C 43.5°F6.4°C 97% 1.0 mph N1.6 kmh N 4.0 mph6.4 kmh 29.34 in993.6 mb 0.00 in0.0 mm 0.00 in0.0 mm 0.00 in0.0 mm
05:32 AM 43.9°F6.6°C 42.8°F6.0°C 96% Calm Calm 6.0 mph9.7 kmh 29.36 in994.2 mb 0.00 in0.0 mm 0.00 in0.0 mm 0.00 in0.0 mm
06:32 AM 44.1°F6.7°C 43.2°F6.2°C 97% 1.0 mph N1.6 kmh N 6.0 mph9.7 kmh 29.38 in994.9 mb 0.00 in0.0 mm 0.00 in0.0 mm 0.00 in0.0 mm
07:32 AM 44.6°F7.0°C 43.9°F6.6°C 97% 1.0 mph N1.6 kmh N 6.0 mph9.7 kmh 29.39 in995.3 mb 0.00 in0.0 mm 0.00 in0.0 mm 0.00 in0.0 mm
08:32 AM 44.4°F6.9°C 43.5°F6.4°C 96% 1.0 mph N1.6 kmh N 5.0 mph8.0 kmh 29.42 in996.3 mb 0.00 in0.0 mm 0.00 in0.0 mm 0.00 in0.0 mm
09:32 AM 46.0°F7.8°C 45.0°F7.2°C 95% Calm Calm 4.0 mph6.4 kmh 29.44 in997.0 mb 0.00 in0.0 mm 0.00 in0.0 mm 0.00 in0.0 mm
10:32 AM 46.0°F7.8°C 44.4°F6.9°C 94% Calm Calm 5.0 mph8.0 kmh 29.46 in997.6 mb 0.00 in0.0 mm 0.00 in0.0 mm 0.00 in0.0 mm
11:32 AM 46.9°F8.3°C 45.0°F7.2°C 93% Calm Calm 5.0 mph8.0 kmh 29.48 in998.3 mb 0.00 in0.0 mm 0.00 in0.0 mm 0.00 in0.0 mm
12:32 PM 46.9°F8.3°C 44.8°F7.1°C 92% Calm Calm 8.0 mph12.9 kmh 29.50 in999.0 mb 0.01 in0.3 mm 0.00 in0.0 mm 0.01 in0.3 mm
01:32 PM 46.6°F8.1°C 44.6°F7.0°C 93% 1.0 mph N1.6 kmh N 4.0 mph6.4 kmh 29.52 in999.7 mb 0.01 in0.3 mm 0.00 in0.0 mm 0.02 in0.5 mm
02:32 PM 45.9°F7.7°C 44.2°F6.8°C 94% Calm Calm 6.0 mph9.7 kmh 29.54 in1000.3 mb 0.02 in0.5 mm 0.00 in0.0 mm 0.03 in0.8 mm
03:32 PM 45.7°F7.6°C 44.1°F6.7°C 94% Calm Calm 4.0 mph6.4 kmh 29.57 in1001.4 mb 0.01 in0.3 mm 0.00 in0.0 mm 0.04 in1.0 mm
04:32 PM 45.7°F7.6°C 44.1°F6.7°C 94% Calm Calm 8.0 mph12.9 kmh 29.58 in1001.7 mb 0.02 in0.5 mm 0.00 in0.0 mm 0.06 in1.5 mm
05:32 PM 44.4°F6.9°C 42.6°F5.9°C 93% 1.0 mph N1.6 kmh N 11.0 mph17.7 kmh 29.59 in1002.0 mb 0.00 in0.0 mm 0.00 in0.0 mm 0.06 in1.5 mm
06:32 PM 43.9°F6.6°C 42.3°F5.7°C 94% Calm Calm 5.0 mph8.0 kmh 29.61 in1002.7 mb 0.00 in0.0 mm 0.00 in0.0 mm 0.06 in1.5 mm
07:32 PM 43.5°F6.4°C 41.9°F5.5°C 94% Calm Calm 1.0 mph1.6 kmh 29.63 in1003.4 mb 0.00 in0.0 mm 0.00 in0.0 mm 0.06 in1.5 mm
08:32 PM 43.2°F6.2°C 41.9°F5.5°C 95% Calm Calm -- 29.66 in1004.4 mb 0.02 in0.5 mm 0.00 in0.0 mm 0.08 in2.0 mm
09:32 PM 43.0°F6.1°C 41.5°F5.3°C 95% Calm Calm -- 29.68 in1005.1 mb 0.01 in0.3 mm 0.00 in0.0 mm 0.09 in2.3 mm
10:32 PM 42.1°F5.6°C 40.8°F4.9°C 95% Calm Calm 1.0 mph1.6 kmh 29.70 in1005.8 mb 0.00 in0.0 mm 0.00 in0.0 mm 0.09 in2.3 mm
11:32 PM 41.4°F5.2°C 40.1°F4.5°C 95% Calm Calm 1.0 mph1.6 kmh 29.70 in1005.8 mb 0.00 in0.0 mm 0.00 in0.0 mm 0.05 in1.3 mm